Time;durP1;ratioP1;P1;durP2;ratioP2;P2;SDS_P1;SDS_P2;PMS_P1;PMS_P2;Temp;Humidity;BMP_temperature;BMP_pressure;BME280_temperature;BME280_humidity;BME280_pressure;Samples;Min_cycle;Max_cycle;Signal;HPM_P1;HPM_P2
2024/01/05 00:03:17;;;;;;;;;;;;;;;17.22;47.41;98285.09;10325554;28;802;-76
2024/01/05 00:08:13;;;;;;;;;;;;;;;17.23;47.40;98264.84;10325871;28;810;-77
2024/01/05 00:13:09;;;;;;;;;;;;;;;17.20;47.54;98238.72;10326360;28;1898;-76
2024/01/05 00:18:06;;;;;;;;;;;;;;;17.19;47.43;98216.00;10325797;28;868;-76
2024/01/05 00:23:02;;;;;;;;;;;;;;;17.21;47.47;98245.69;10325741;28;876;-76
2024/01/05 00:27:57;;;;;;;;;;;;;;;17.22;47.26;98279.81;10326424;28;890;-76
2024/01/05 00:32:53;;;;;;;;;;;;;;;17.19;47.43;98253.69;10325927;28;1957;-76
2024/01/05 00:37:49;;;;;;;;;;;;;;;17.18;47.49;98244.09;10325414;28;1152;-76
2024/01/05 00:42:45;;;;;;;;;;;;;;;17.15;47.45;98219.75;10325162;28;834;-76
2024/01/05 00:47:41;;;;;;;;;;;;;;;17.17;47.57;98209.97;10324467;28;927;-76
2024/01/05 00:52:37;;;;;;;;;;;;;;;17.17;47.44;98202.06;10330865;28;1973;-76
2024/01/05 00:57:33;;;;;;;;;;;;;;;17.15;47.26;98191.63;10333828;28;949;-76
2024/01/05 01:02:29;;;;;;;;;;;;;;;17.14;47.59;98187.31;10333014;28;1013;-76
2024/01/05 01:07:25;;;;;;;;;;;;;;;17.11;47.39;98168.22;10332291;28;818;-76
2024/01/05 01:12:21;;;;;;;;;;;;;;;17.11;47.53;98160.34;10331896;28;1914;-76
2024/01/05 01:17:16;;;;;;;;;;;;;;;17.11;47.36;98150.69;10331839;28;905;-76
2024/01/05 01:22:12;;;;;;;;;;;;;;;17.11;47.39;98155.06;10333071;28;881;-76
2024/01/05 01:27:08;;;;;;;;;;;;;;;17.08;47.63;98164.00;10332130;28;846;-76
2024/01/05 01:32:04;;;;;;;;;;;;;;;17.05;47.45;98151.06;10332485;28;1957;-76
2024/01/05 01:37:00;;;;;;;;;;;;;;;17.05;47.53;98141.38;10331426;28;1267;-76
2024/01/05 01:41:56;;;;;;;;;;;;;;;17.09;47.37;98136.75;10331588;28;783;-76
2024/01/05 01:46:52;;;;;;;;;;;;;;;17.07;47.58;98117.59;10330648;28;964;-76
2024/01/05 01:51:48;;;;;;;;;;;;;;;17.06;47.30;98113.28;10331067;28;1905;-76
2024/01/05 01:56:44;;;;;;;;;;;;;;;17.07;47.31;98112.31;10331882;28;930;-76
2024/01/05 02:01:40;;;;;;;;;;;;;;;17.09;47.36;98110.44;10330768;28;877;-76
2024/01/05 02:06:35;;;;;;;;;;;;;;;17.08;47.52;98106.97;10330680;28;965;-76
2024/01/05 02:11:31;;;;;;;;;;;;;;;17.06;47.29;98089.59;10330321;28;1897;-76
2024/01/05 02:16:27;;;;;;;;;;;;;;;17.07;47.29;98089.47;10330454;28;857;-76
2024/01/05 02:21:23;;;;;;;;;;;;;;;17.09;47.30;98084.13;10330714;28;810;-76
2024/01/05 02:26:19;;;;;;;;;;;;;;;17.07;47.39;98080.72;10329889;28;836;-76
2024/01/05 02:31:15;;;;;;;;;;;;;;;17.07;47.44;98078.09;10329015;28;1902;-76
2024/01/05 02:36:11;;;;;;;;;;;;;;;17.08;47.23;98074.50;10329716;28;1430;-76
2024/01/05 02:41:07;;;;;;;;;;;;;;;17.08;47.33;98066.63;10329621;28;835;-76
2024/01/05 02:46:03;;;;;;;;;;;;;;;17.07;47.27;98064.94;10329095;28;906;-76
2024/01/05 02:50:58;;;;;;;;;;;;;;;17.05;47.29;98057.13;10328840;28;1910;-76
2024/01/05 02:55:54;;;;;;;;;;;;;;;17.06;47.30;98063.25;10328687;28;803;-76
2024/01/05 03:00:50;;;;;;;;;;;;;;;17.06;47.38;98050.09;10329080;28;818;-76
2024/01/05 03:05:46;;;;;;;;;;;;;;;17.06;47.19;98042.22;10328331;28;793;-76
2024/01/05 03:10:42;;;;;;;;;;;;;;;17.03;47.31;98038.00;10328522;28;1894;-76
2024/01/05 03:15:38;;;;;;;;;;;;;;;17.05;47.09;98032.59;10327679;28;818;-76
2024/01/05 03:20:34;;;;;;;;;;;;;;;17.07;47.07;98020.19;10327970;28;795;-76
2024/01/05 03:25:30;;;;;;;;;;;;;;;17.07;47.24;98017.56;10327957;28;949;-76
2024/01/05 03:30:26;;;;;;;;;;;;;;;17.04;47.08;98010.72;10327723;28;1961;-76
2024/01/05 03:35:22;;;;;;;;;;;;;;;17.05;47.18;98006.28;10327598;28;1326;-76
2024/01/05 03:40:18;;;;;;;;;;;;;;;17.04;47.05;98001.97;10327607;28;893;-76
2024/01/05 03:45:13;;;;;;;;;;;;;;;17.05;47.28;98006.28;10327287;28;846;-76
2024/01/05 03:50:09;;;;;;;;;;;;;;;17.02;47.13;98002.06;10326467;28;1953;-76
2024/01/05 03:55:05;;;;;;;;;;;;;;;17.01;47.22;97997.75;10326325;28;903;-76
2024/01/05 04:00:01;;;;;;;;;;;;;;;17.00;47.15;97980.28;10326838;28;1067;-76
2024/01/05 04:04:57;;;;;;;;;;;;;;;17.00;47.18;97974.16;10326120;28;940;-76
2024/01/05 04:09:53;;;;;;;;;;;;;;;16.99;47.19;97975.97;10326537;28;1894;-76
2024/01/05 04:14:49;;;;;;;;;;;;;;;16.97;47.29;97975.22;10325800;28;849;-76
2024/01/05 04:19:45;;;;;;;;;;;;;;;16.95;47.38;97969.25;10325343;28;845;-77
2024/01/05 04:24:41;;;;;;;;;;;;;;;16.97;47.24;97964.69;10325355;28;847;-76
2024/01/05 04:29:38;;;;;;;;;;;;;;;16.97;47.51;97961.22;10325407;28;1901;-76
2024/01/05 04:34:34;;;;;;;;;;;;;;;16.95;47.42;97956.06;10326628;28;898;-76
2024/01/05 04:39:30;;;;;;;;;;;;;;;16.96;47.40;97963.00;10324850;28;1339;-76
2024/01/05 04:44:26;;;;;;;;;;;;;;;16.98;47.30;97955.88;10325513;28;858;-76
2024/01/05 04:49:22;;;;;;;;;;;;;;;17.07;47.06;97951.75;10325729;28;945;-76
2024/01/05 04:54:17;;;;;;;;;;;;;;;17.11;46.87;97968.16;10324383;28;1902;-76
2024/01/05 04:59:13;;;;;;;;;;;;;;;17.15;46.77;97962.59;10324906;28;821;-76
2024/01/05 05:04:09;;;;;;;;;;;;;;;17.18;46.67;97946.56;10325642;28;853;-75
2024/01/05 05:09:05;;;;;;;;;;;;;;;17.23;46.61;97948.91;10324665;28;940;-75
2024/01/05 05:14:01;;;;;;;;;;;;;;;17.29;46.82;97959.84;10324483;28;1886;-77
2024/01/05 05:18:57;;;;;;;;;;;;;;;17.31;46.67;97963.19;10324568;28;838;-77
2024/01/05 05:23:53;;;;;;;;;;;;;;;17.34;46.72;97951.63;10324428;28;886;-76
2024/01/05 05:28:48;;;;;;;;;;;;;;;17.41;46.81;97949.41;10323703;28;949;-75
2024/01/05 05:33:44;;;;;;;;;;;;;;;17.37;46.88;97940.88;10324807;28;1889;-75
2024/01/05 05:38:40;;;;;;;;;;;;;;;17.37;46.66;97948.78;10328279;28;1247;-75
2024/01/05 05:43:36;;;;;;;;;;;;;;;17.41;46.75;97947.59;10327597;28;1092;-75
2024/01/05 05:48:32;;;;;;;;;;;;;;;17.45;46.68;97949.09;10328449;28;1073;-75
2024/01/05 05:53:28;;;;;;;;;;;;;;;17.43;46.94;97942.25;10330493;28;1910;-75
2024/01/05 05:58:24;;;;;;;;;;;;;;;17.42;46.79;97940.53;10330949;28;882;-75
2024/01/05 06:03:22;;;;;;;;;;;;;;;17.44;46.66;97936.00;10331753;28;877;-76
2024/01/05 06:08:18;;;;;;;;;;;;;;;17.43;46.79;97924.66;10330619;28;861;-75
2024/01/05 06:13:14;;;;;;;;;;;;;;;17.45;46.69;97920.13;10330552;28;1894;-78
2024/01/05 06:18:10;;;;;;;;;;;;;;;17.47;46.91;97920.00;10330268;28;912;-77
2024/01/05 06:23:06;;;;;;;;;;;;;;;17.45;46.90;97920.13;10330069;28;944;-76
2024/01/05 06:28:02;;;;;;;;;;;;;;;17.43;46.97;97918.53;10330560;28;935;-76
2024/01/05 06:32:58;;;;;;;;;;;;;;;17.40;47.03;97940.66;10329895;28;1890;-76
2024/01/05 06:37:53;;;;;;;;;;;;;;;17.42;46.67;97935.28;10329237;28;1176;-76
2024/01/05 06:42:49;;;;;;;;;;;;;;;17.41;46.82;97937.06;10330190;28;834;-76
2024/01/05 06:47:45;;;;;;;;;;;;;;;17.41;46.75;97929.16;10329541;28;813;-76
2024/01/05 06:52:41;;;;;;;;;;;;;;;17.42;46.49;97927.38;10328753;28;1961;-77
2024/01/05 06:57:37;;;;;;;;;;;;;;;17.43;46.85;97923.81;10329211;28;1016;-76
2024/01/05 07:02:33;;;;;;;;;;;;;;;17.42;46.79;97912.44;10329336;28;1055;-77
2024/01/05 07:07:29;;;;;;;;;;;;;;;17.42;46.77;97914.22;10329497;28;782;-72
2024/01/05 07:12:25;;;;;;;;;;;;;;;17.33;46.92;97907.81;10328017;28;1948;-77
2024/01/05 07:17:21;;;;;;;;;;;;;;;17.33;46.96;97902.53;10327936;28;834;-76
2024/01/05 07:22:16;;;;;;;;;;;;;;;17.32;46.86;97908.78;10328255;28;810;-77
2024/01/05 07:27:15;;;;;;;;;;;;;;;17.32;46.52;97903.50;10327538;28;921;-77
2024/01/05 07:32:11;;;;;;;;;;;;;;;17.25;46.95;97897.81;10327110;28;1937;-77
2024/01/05 07:37:06;;;;;;;;;;;;;;;17.21;46.88;97893.72;10326419;28;1266;-76
2024/01/05 07:42:02;;;;;;;;;;;;;;;17.21;47.11;97896.38;10326904;28;759;-76
2024/01/05 07:46:58;;;;;;;;;;;;;;;17.24;46.90;97890.88;10326748;28;876;-77
2024/01/05 07:51:54;;;;;;;;;;;;;;;17.27;46.66;97895.91;10326427;28;1902;-75
2024/01/05 07:56:50;;;;;;;;;;;;;;;17.25;46.72;97894.34;10326363;28;887;-77
2024/01/05 08:01:46;;;;;;;;;;;;;;;17.24;46.91;97898.78;10326361;28;797;-81
2024/01/05 08:06:42;;;;;;;;;;;;;;;17.29;46.73;97901.94;10326801;28;972;-76
2024/01/05 08:11:38;;;;;;;;;;;;;;;17.34;46.58;97898.09;10326273;28;1898;-77
2024/01/05 08:16:34;;;;;;;;;;;;;;;17.38;46.49;97894.31;10326455;28;928;-76
2024/01/05 08:21:30;;;;;;;;;;;;;;;17.38;46.62;97889.88;10325750;28;905;-76
2024/01/05 08:26:25;;;;;;;;;;;;;;;17.40;46.64;97887.16;10325617;28;777;-76
2024/01/05 08:31:22;;;;;;;;;;;;;;;17.45;45.85;97890.31;10325152;28;1898;-76
2024/01/05 08:36:17;;;;;;;;;;;;;;;17.45;46.38;97896.41;10325687;28;1113;-76
2024/01/05 08:41:13;;;;;;;;;;;;;;;17.45;46.29;97898.22;10325417;28;866;-76
2024/01/05 08:46:09;;;;;;;;;;;;;;;17.46;46.37;97900.72;10325745;28;892;-76
2024/01/05 08:51:05;;;;;;;;;;;;;;;17.46;46.24;97891.97;10325052;28;1979;-76
2024/01/05 08:56:01;;;;;;;;;;;;;;;17.50;46.00;97888.16;10325027;28;890;-76
2024/01/05 09:00:57;;;;;;;;;;;;;;;17.48;46.25;97890.91;10325403;28;1011;-76
2024/01/05 09:05:53;;;;;;;;;;;;;;;17.50;46.19;97898.69;10325525;28;869;-76
2024/01/05 09:10:48;;;;;;;;;;;;;;;17.48;45.97;97893.56;10324822;28;1894;-76
2024/01/05 09:15:44;;;;;;;;;;;;;;;17.49;46.07;97897.84;10332074;28;947;-76
2024/01/05 09:20:40;;;;;;;;;;;;;;;17.51;45.98;97900.41;10333040;28;877;-76
2024/01/05 09:25:36;;;;;;;;;;;;;;;17.51;45.67;97900.41;10332225;28;769;-76
2024/01/05 09:30:32;;;;;;;;;;;;;;;17.50;45.85;97902.19;10332544;28;1897;-76
2024/01/05 09:35:28;;;;;;;;;;;;;;;17.55;45.82;97898.38;10332335;28;1390;-76
2024/01/05 09:40:25;;;;;;;;;;;;;;;17.52;45.62;97905.53;10332655;28;825;-76
2024/01/05 09:45:21;;;;;;;;;;;;;;;17.53;45.60;97911.69;10331569;28;956;-76
2024/01/05 09:50:17;;;;;;;;;;;;;;;17.50;45.46;97925.03;10331249;28;1985;-76
2024/01/05 09:55:13;;;;;;;;;;;;;;;17.53;45.50;97924.84;10331434;28;857;-76
2024/01/05 10:00:12;;;;;;;;;;;;;;;17.57;45.23;97910.47;10331549;28;833;-76
2024/01/05 10:05:08;;;;;;;;;;;;;;;17.57;45.11;97909.66;10331595;28;884;-76
2024/01/05 10:10:04;;;;;;;;;;;;;;;17.58;45.23;97911.31;10330477;28;1898;-76
2024/01/05 10:15:00;;;;;;;;;;;;;;;17.59;44.38;97919.13;10330481;28;831;-76
2024/01/05 10:19:56;;;;;;;;;;;;;;;17.60;44.69;97917.31;10330257;28;841;-76
2024/01/05 10:24:51;;;;;;;;;;;;;;;17.63;44.15;97904.78;10329549;28;773;-76
2024/01/05 10:29:47;;;;;;;;;;;;;;;17.61;44.29;97911.97;10330401;28;1958;-76
2024/01/05 10:34:43;;;;;;;;;;;;;;;17.66;44.21;97907.22;10330481;28;854;-76
2024/01/05 10:39:40;;;;;;;;;;;;;;;17.62;44.64;97910.16;10329972;28;1329;-76
2024/01/05 10:44:35;;;;;;;;;;;;;;;17.61;44.34;97904.06;10329726;28;872;-76
2024/01/05 10:49:32;;;;;;;;;;;;;;;17.67;44.13;97916.78;10329674;28;822;-76
2024/01/05 10:54:28;;;;;;;;;;;;;;;17.66;44.09;97915.09;10328766;28;1895;-76
2024/01/05 10:59:24;;;;;;;;;;;;;;;17.70;43.53;97916.56;10328922;28;756;-76
2024/01/05 11:04:21;;;;;;;;;;;;;;;17.74;43.68;97911.94;10328469;28;902;-76
2024/01/05 11:09:17;;;;;;;;;;;;;;;17.72;43.56;97909.38;10328229;28;872;-76
2024/01/05 11:14:13;;;;;;;;;;;;;;;17.67;43.48;97924.69;10328663;28;1947;-76
2024/01/05 11:19:09;;;;;;;;;;;;;;;17.66;43.66;97920.38;10327874;28;883;-76
2024/01/05 11:24:05;;;;;;;;;;;;;;;17.68;43.30;97923.75;10327483;28;952;-73
2024/01/05 11:29:01;;;;;;;;;;;;;;;17.68;42.84;97931.66;10327418;28;742;-73
2024/01/05 11:33:58;;;;;;;;;;;;;;;17.64;43.36;97918.81;10326117;28;1887;-77
2024/01/05 11:38:54;;;;;;;;;;;;;;;17.64;43.48;97916.16;10327029;28;1355;-77
2024/01/05 11:43:50;;;;;;;;;;;;;;;17.60;43.85;97918.16;10326882;28;977;-77
2024/01/05 11:48:46;;;;;;;;;;;;;;;17.69;43.57;97906.97;10327324;28;1041;-76
2024/01/05 11:53:42;;;;;;;;;;;;;;;17.68;43.89;97909.72;10326481;28;1894;-78
2024/01/05 11:58:43;;;;;;;;;;;;;;;17.61;43.97;97898.78;10325835;28;833;-77
2024/01/05 12:03:39;;;;;;;;;;;;;;;17.66;44.11;97903.72;10326173;28;891;-77
2024/01/05 12:08:35;;;;;;;;;;;;;;;17.64;44.05;97905.63;10326122;28;770;-76
2024/01/05 12:13:32;;;;;;;;;;;;;;;17.68;43.81;97912.34;10325799;28;1902;-76
2024/01/05 12:18:30;;;;;;;;;;;;;;;17.62;44.37;97929.44;10326387;28;876;-76
2024/01/05 12:23:26;;;;;;;;;;;;;;;17.68;43.87;97912.34;10325624;28;1091;-77
2024/01/05 12:28:22;;;;;;;;;;;;;;;17.70;43.86;97908.66;10326246;28;901;-77
2024/01/05 12:33:18;;;;;;;;;;;;;;;17.72;43.69;97888.31;10325455;28;1947;-78
2024/01/05 12:38:14;;;;;;;;;;;;;;;17.72;43.88;97895.38;10325296;28;1482;-77
2024/01/05 12:43:09;;;;;;;;;;;;;;;17.67;44.22;97890.44;10325398;28;913;-77
2024/01/05 12:48:05;;;;;;;;;;;;;;;17.69;44.32;97892.97;10330919;28;882;-77
2024/01/05 12:53:01;;;;;;;;;;;;;;;17.71;43.81;97896.31;10333751;28;1882;-74
2024/01/05 12:57:57;;;;;;;;;;;;;;;17.69;43.99;97893.81;10334010;28;795;-76
2024/01/05 13:02:53;;;;;;;;;;;;;;;17.74;44.20;97891.69;10333790;28;945;-76
2024/01/05 13:07:49;;;;;;;;;;;;;;;17.81;43.78;97891.25;10332990;28;827;-77
2024/01/05 13:12:46;;;;;;;;;;;;;;;17.69;44.14;97899.06;10332811;28;1890;-76
2024/01/05 13:17:42;;;;;;;;;;;;;;;17.72;44.12;97903.28;10332713;28;860;-77
2024/01/05 13:22:37;;;;;;;;;;;;;;;17.72;44.34;97906.75;10332521;28;770;-76
2024/01/05 13:27:34;;;;;;;;;;;;;;;17.72;44.34;97905.91;10332215;28;965;-75
2024/01/05 13:32:30;;;;;;;;;;;;;;;17.70;44.58;97906.00;10332663;28;1894;-75
2024/01/05 13:37:26;;;;;;;;;;;;;;;17.72;44.56;97904.13;10331731;28;1280;-76
2024/01/05 13:42:25;;;;;;;;;;;;;;;17.72;44.34;97912.03;10331678;28;770;-75
2024/01/05 13:47:20;;;;;;;;;;;;;;;17.70;44.26;97913.91;10332137;28;803;-75
2024/01/05 13:52:17;;;;;;;;;;;;;;;17.82;43.91;97903.50;10331279;28;1973;-73
2024/01/05 13:57:14;;;;;;;;;;;;;;;17.72;44.27;97906.75;10331274;28;865;-75
2024/01/05 14:02:09;;;;;;;;;;;;;;;17.73;44.29;97912.84;10331606;28;764;-75
2024/01/05 14:07:05;;;;;;;;;;;;;;;17.76;43.77;97917.91;10331594;28;830;-75
2024/01/05 14:12:01;;;;;;;;;;;;;;;17.72;44.36;97913.81;10331289;28;1897;-75
2024/01/05 14:16:57;;;;;;;;;;;;;;;17.77;43.80;97919.59;10329983;28;770;-75
2024/01/05 14:21:53;;;;;;;;;;;;;;;17.72;43.99;97927.84;10330197;28;1066;-75
2024/01/05 14:26:49;;;;;;;;;;;;;;;17.71;44.12;97920.88;10330050;28;842;-75
2024/01/05 14:31:45;;;;;;;;;;;;;;;17.78;43.60;97920.44;10330382;28;1898;-75
2024/01/05 14:36:41;;;;;;;;;;;;;;;17.74;43.63;97923.31;10329478;28;1675;-75
2024/01/05 14:41:36;;;;;;;;;;;;;;;17.75;43.70;97924.97;10329423;28;940;-76
2024/01/05 14:46:32;;;;;;;;;;;;;;;17.70;43.88;97928.91;10329303;28;842;-75
2024/01/05 14:51:28;;;;;;;;;;;;;;;17.78;43.31;97928.34;10329562;28;1965;-75
2024/01/05 14:56:24;;;;;;;;;;;;;;;17.73;43.48;97931.31;10329461;28;969;-75
2024/01/05 15:01:20;;;;;;;;;;;;;;;17.74;43.29;97925.09;10329000;28;850;-75
2024/01/05 15:06:16;;;;;;;;;;;;;;;17.77;43.27;97938.06;10328470;28;763;-75
2024/01/05 15:11:12;;;;;;;;;;;;;;;17.72;43.58;97941.00;10327536;28;1898;-75
2024/01/05 15:16:08;;;;;;;;;;;;;;;17.72;43.88;97945.44;10327498;28;887;-74
2024/01/05 15:21:04;;;;;;;;;;;;;;;17.74;43.40;97957.56;10327287;28;1519;-75
2024/01/05 15:25:59;;;;;;;;;;;;;;;17.75;43.34;97951.31;10327685;28;818;-75
2024/01/05 15:30:55;;;;;;;;;;;;;;;17.71;43.67;97955.16;10327413;28;1961;-76
2024/01/05 15:35:51;;;;;;;;;;;;;;;17.51;44.11;97959.19;10327678;28;1061;-76
2024/01/05 15:40:47;;;;;;;;;;;;;;;17.49;44.12;97961.06;10326593;28;1003;-74
2024/01/05 15:45:43;;;;;;;;;;;;;;;17.48;44.17;97964.66;10327003;28;813;-74
2024/01/05 15:50:39;;;;;;;;;;;;;;;17.51;44.03;97963.63;10325988;28;1971;-74
2024/01/05 15:55:36;;;;;;;;;;;;;;;17.47;44.11;97962.13;10325947;28;937;-74
2024/01/05 16:00:31;;;;;;;;;;;;;;;17.57;44.15;97960.53;10326392;28;814;-73
2024/01/05 16:05:28;;;;;;;;;;;;;;;17.60;43.97;97964.75;10326895;28;759;-73
2024/01/05 16:10:24;;;;;;;;;;;;;;;17.56;43.79;97973.84;10326655;28;1898;-73
2024/01/05 16:15:20;;;;;;;;;;;;;;;17.59;43.87;97973.63;10326209;28;859;-74
2024/01/05 16:20:18;;;;;;;;;;;;;;;17.64;43.68;97984.66;10325478;28;843;-74
2024/01/05 16:25:14;;;;;;;;;;;;;;;17.69;43.54;97988.66;10326293;28;803;-73
2024/01/05 16:30:10;;;;;;;;;;;;;;;17.67;43.63;97985.28;10325527;28;1906;-73
2024/01/05 16:35:06;;;;;;;;;;;;;;;17.65;43.88;97984.53;10325540;28;835;-73
2024/01/05 16:40:02;;;;;;;;;;;;;;;17.70;43.75;97971.88;10325446;28;1440;-73
2024/01/05 16:44:58;;;;;;;;;;;;;;;17.68;44.09;97975.59;10325259;28;954;-73
2024/01/05 16:49:54;;;;;;;;;;;;;;;17.69;44.26;97985.19;10324571;28;942;-73
2024/01/05 16:54:50;;;;;;;;;;;;;;;17.82;43.79;97982.56;10325062;28;1906;-73
2024/01/05 16:59:46;;;;;;;;;;;;;;;17.78;44.07;97986.31;10325559;28;791;-71
2024/01/05 17:04:41;;;;;;;;;;;;;;;17.81;44.35;97981.69;10325632;28;806;-74
2024/01/05 17:09:38;;;;;;;;;;;;;;;17.85;44.38;97991.06;10324879;28;809;-72
2024/01/05 17:14:34;;;;;;;;;;;;;;;17.78;44.72;97991.59;10325328;28;1894;-71
2024/01/05 17:19:29;;;;;;;;;;;;;;;17.84;44.75;97989.41;10324654;28;941;-72
2024/01/05 17:24:25;;;;;;;;;;;;;;;17.87;44.51;97998.88;10325484;28;814;-75
2024/01/05 17:29:21;;;;;;;;;;;;;;;17.81;44.85;97999.31;10324380;28;853;-74
2024/01/05 17:34:17;;;;;;;;;;;;;;;17.88;43.88;98008.47;10327752;28;1906;-74
2024/01/05 17:39:13;;;;;;;;;;;;;;;17.81;44.33;98015.13;10332070;28;1124;-74
2024/01/05 17:44:09;;;;;;;;;;;;;;;17.81;44.51;98017.75;10331704;28;943;-74
2024/01/05 17:49:05;;;;;;;;;;;;;;;17.83;44.32;98021.97;10331435;28;980;-74
2024/01/05 17:54:01;;;;;;;;;;;;;;;17.81;43.96;98015.94;10330642;28;1965;-74
2024/01/05 17:58:57;;;;;;;;;;;;;;;17.83;44.20;98034.31;10331195;28;933;-74
2024/01/05 18:03:53;;;;;;;;;;;;;;;17.85;44.32;98040.31;10332352;28;765;-74
2024/01/05 18:08:48;;;;;;;;;;;;;;;17.84;44.26;98041.25;10331399;28;878;-74
2024/01/05 18:13:44;;;;;;;;;;;;;;;17.82;44.15;98041.38;10331123;28;1898;-74
2024/01/05 18:18:40;;;;;;;;;;;;;;;17.87;43.96;98049.81;10330421;28;988;-74
2024/01/05 18:23:36;;;;;;;;;;;;;;;17.84;44.07;98057.06;10330779;28;887;-74
2024/01/05 18:28:32;;;;;;;;;;;;;;;17.83;44.28;98076.47;10330059;28;993;-74
2024/01/05 18:33:28;;;;;;;;;;;;;;;17.87;43.77;98070.88;10329987;28;1894;-74
2024/01/05 18:38:24;;;;;;;;;;;;;;;17.91;43.47;98079.41;10329949;28;1314;-74
2024/01/05 18:43:20;;;;;;;;;;;;;;;17.88;43.61;98095.44;10329109;28;879;-74
2024/01/05 18:48:16;;;;;;;;;;;;;;;17.86;44.03;98100.81;10329905;28;872;-74
2024/01/05 18:53:12;;;;;;;;;;;;;;;17.86;44.03;98099.97;10329335;28;1902;-73
2024/01/05 18:58:08;;;;;;;;;;;;;;;17.86;44.14;98114.00;10328943;28;927;-74
2024/01/05 19:03:04;;;;;;;;;;;;;;;17.90;43.99;98120.75;10328757;28;829;-74
2024/01/05 19:08:00;;;;;;;;;;;;;;;17.85;44.07;98117.59;10328489;28;818;-74
2024/01/05 19:12:56;;;;;;;;;;;;;;;17.88;44.13;98116.53;10329171;28;1953;-74
2024/01/05 19:17:52;;;;;;;;;;;;;;;17.90;44.09;98122.53;10328699;28;861;-74
2024/01/05 19:22:47;;;;;;;;;;;;;;;17.97;43.42;98115.88;10328484;28;884;-74
2024/01/05 19:27:43;;;;;;;;;;;;;;;17.87;44.15;98122.75;10327814;28;892;-74
2024/01/05 19:32:39;;;;;;;;;;;;;;;17.88;44.22;98129.72;10327531;28;1902;-74
2024/01/05 19:37:35;;;;;;;;;;;;;;;17.88;44.08;98134.97;10327259;28;1223;-73
2024/01/05 19:42:31;;;;;;;;;;;;;;;17.90;43.82;98131.28;10327087;28;790;-73
2024/01/05 19:47:27;;;;;;;;;;;;;;;17.91;43.89;98134.75;10327500;28;865;-74
2024/01/05 19:52:23;;;;;;;;;;;;;;;17.88;44.14;98125.28;10327236;28;1968;-74
2024/01/05 19:57:19;;;;;;;;;;;;;;;17.92;44.06;98131.16;10325854;28;804;-74
2024/01/05 20:02:14;;;;;;;;;;;;;;;17.92;44.27;98144.34;10326403;28;918;-74
2024/01/05 20:07:10;;;;;;;;;;;;;;;17.88;44.15;98149.00;10326800;28;818;-74
2024/01/05 20:12:09;;;;;;;;;;;;;;;17.92;44.07;98149.63;10326697;28;1953;-74
2024/01/05 20:17:05;;;;;;;;;;;;;;;17.90;44.14;98144.47;10327025;28;818;-74
2024/01/05 20:22:01;;;;;;;;;;;;;;;17.92;43.99;98146.97;10325835;28;887;-74
2024/01/05 20:26:57;;;;;;;;;;;;;;;17.91;44.29;98158.50;10325644;28;889;-73
2024/01/05 20:31:54;;;;;;;;;;;;;;;17.93;44.08;98149.53;10325937;28;1937;-74
2024/01/05 20:36:52;;;;;;;;;;;;;;;17.90;44.27;98152.38;10325508;28;1343;-73
2024/01/05 20:41:51;;;;;;;;;;;;;;;17.85;44.10;98149.22;10325916;28;980;-74
2024/01/05 20:46:47;;;;;;;;;;;;;;;17.83;44.27;98159.00;10325864;28;949;-74
2024/01/05 20:51:43;;;;;;;;;;;;;;;17.84;44.28;98173.03;10325201;28;1967;-74
2024/01/05 20:56:39;;;;;;;;;;;;;;;17.83;44.08;98176.63;10325248;28;902;-74
2024/01/05 21:01:35;;;;;;;;;;;;;;;17.79;43.99;98176.00;10325046;28;774;-74
2024/01/05 21:06:31;;;;;;;;;;;;;;;17.75;44.29;98175.31;10326310;28;810;-74
2024/01/05 21:11:27;;;;;;;;;;;;;;;17.71;44.27;98171.22;10333574;28;1952;-76
2024/01/05 21:16:23;;;;;;;;;;;;;;;17.71;44.25;98173.00;10333946;28;862;-74
2024/01/05 21:21:20;;;;;;;;;;;;;;;17.72;44.18;98182.59;10332038;28;867;-74
2024/01/05 21:26:16;;;;;;;;;;;;;;;17.71;44.27;98181.75;10332854;28;814;-74
2024/01/05 21:31:13;;;;;;;;;;;;;;;17.70;44.47;98185.31;10332092;28;1952;-74
2024/01/05 21:36:12;;;;;;;;;;;;;;;17.70;44.41;98174.78;10332283;28;1099;-74
2024/01/05 21:41:08;;;;;;;;;;;;;;;17.68;44.14;98191.66;10332456;28;784;-74
2024/01/05 21:46:05;;;;;;;;;;;;;;;17.65;44.28;98208.50;10330965;28;1100;-74
2024/01/05 21:51:01;;;;;;;;;;;;;;;17.61;44.43;98198.28;10331985;28;1914;-74
2024/01/05 21:55:58;;;;;;;;;;;;;;;17.57;44.48;98210.81;10331336;28;822;-73
2024/01/05 22:00:53;;;;;;;;;;;;;;;17.56;44.72;98214.41;10331057;28;845;-73
2024/01/05 22:05:49;;;;;;;;;;;;;;;17.55;44.62;98209.22;10331494;28;885;-74
2024/01/05 22:10:45;;;;;;;;;;;;;;;17.51;44.52;98222.59;10330112;28;1952;-74
2024/01/05 22:15:41;;;;;;;;;;;;;;;17.49;44.68;98228.91;10330511;28;885;-74
2024/01/05 22:20:37;;;;;;;;;;;;;;;17.47;44.68;98236.06;10330298;28;818;-74
2024/01/05 22:25:33;;;;;;;;;;;;;;;17.45;44.82;98241.47;10330166;28;897;-74
2024/01/05 22:30:29;;;;;;;;;;;;;;;17.46;44.64;98234.41;10330061;28;1889;-74
2024/01/05 22:35:25;;;;;;;;;;;;;;;17.42;44.72;98239.03;10329645;28;1490;-74
2024/01/05 22:40:21;;;;;;;;;;;;;;;17.43;44.88;98229.34;10329763;28;794;-74
2024/01/05 22:45:17;;;;;;;;;;;;;;;17.40;44.80;98243.56;10329500;28;803;-73
2024/01/05 22:50:13;;;;;;;;;;;;;;;17.41;44.87;98247.03;10330133;28;1922;-74
2024/01/05 22:55:09;;;;;;;;;;;;;;;17.40;44.78;98251.44;10329136;28;925;-74
2024/01/05 23:00:08;;;;;;;;;;;;;;;17.39;44.95;98255.00;10329462;28;790;-74
2024/01/05 23:05:04;;;;;;;;;;;;;;;17.39;44.79;98257.66;10329244;28;933;-74
2024/01/05 23:10:00;;;;;;;;;;;;;;;17.39;44.64;98265.56;10329477;28;826;-74
2024/01/05 23:14:56;;;;;;;;;;;;;;;17.40;44.85;98266.41;10328271;28;2024;-74
2024/01/05 23:19:52;;;;;;;;;;;;;;;17.39;44.72;98269.97;10328091;28;939;-74
2024/01/05 23:24:47;;;;;;;;;;;;;;;17.36;44.73;98275.44;10329085;28;873;-74
2024/01/05 23:29:43;;;;;;;;;;;;;;;17.36;44.64;98283.34;10327332;28;803;-74
2024/01/05 23:34:39;;;;;;;;;;;;;;;17.36;44.98;98278.91;10327186;28;1955;-74
2024/01/05 23:39:35;;;;;;;;;;;;;;;17.37;44.89;98287.66;10326706;28;1455;-74
2024/01/05 23:44:31;;;;;;;;;;;;;;;17.36;45.07;98292.09;10327087;28;814;-74
2024/01/05 23:49:28;;;;;;;;;;;;;;;17.34;45.12;98293.97;10327490;28;865;-74
2024/01/05 23:54:24;;;;;;;;;;;;;;;17.33;44.97;98291.47;10326839;28;1972;-74
2024/01/05 23:59:20;;;;;;;;;;;;;;;17.35;45.25;98303.59;10327184;28;929;-74
